Time;durP1;ratioP1;P1;durP2;ratioP2;P2;SDS_P1;SDS_P2;PMS_P1;PMS_P2;Temp;Humidity;BMP_temperature;BMP_pressure;BME280_temperature;BME280_humidity;BME280_pressure;Samples;Min_cycle;Max_cycle;Signal;HPM_P1;HPM_P2
2022/04/30 00:04:55;;;;;;;25.83;12.37;;;5.60;99.90;;;;;;10453644;28;20052;-83
2022/04/30 00:09:56;;;;;;;29.57;13.27;;;5.50;99.90;;;;;;10453463;28;20494;-84
2022/04/30 00:14:57;;;;;;;28.27;12.53;;;5.50;99.90;;;;;;10431506;28;20045;-85
2022/04/30 00:19:57;;;;;;;28.30;13.50;;;5.60;99.90;;;;;;10434335;28;20052;-85
2022/04/30 00:24:59;;;;;;;25.10;13.67;;;5.60;99.90;;;;;;10454781;28;20464;-86
2022/04/30 00:29:59;;;;;;;25.87;11.97;;;5.60;99.90;;;;;;10435883;28;20032;-86
2022/04/30 00:35:02;;;;;;;25.93;13.07;;;5.70;99.90;;;;;;10453415;28;20021;-86
2022/04/30 00:40:03;;;;;;;25.87;11.40;;;5.80;99.80;;;;;;10452515;28;20557;-86
2022/04/30 00:45:04;;;;;;;21.70;11.90;;;6.00;98.30;;;;;;10452828;28;20032;-85
2022/04/30 00:50:05;;;;;;;23.00;11.37;;;6.10;97.30;;;;;;10452756;28;20044;-84
2022/04/30 00:55:08;;;;;;;23.27;12.40;;;6.10;97.30;;;;;;10451873;28;20032;-86
2022/04/30 01:00:10;;;;;;;19.77;11.57;;;6.20;96.10;;;;;;10452252;28;20080;-85
2022/04/30 01:05:10;;;;;;;22.00;11.70;;;6.20;96.90;;;;;;10451442;28;20507;-85
2022/04/30 01:10:11;;;;;;;22.90;11.57;;;5.90;98.00;;;;;;10433437;28;20025;-84
2022/04/30 01:15:12;;;;;;;22.70;11.50;;;5.70;99.60;;;;;;10431024;28;20041;-86
2022/04/30 01:20:13;;;;;;;20.20;11.60;;;5.50;99.90;;;;;;10451061;28;20456;-85
2022/04/30 01:25:14;;;;;;;26.27;13.47;;;5.20;99.90;;;;;;10451455;28;20103;-85
2022/04/30 01:30:16;;;;;;;25.93;12.00;;;5.10;99.90;;;;;;10431457;28;20025;-86
2022/04/30 01:40:37;;;;;;;22.43;12.27;;;5.00;99.90;;;;;;10466349;22;20089;-85
2022/04/30 01:45:38;;;;;;;24.20;11.77;;;4.90;99.90;;;;;;10449947;28;20064;-86
2022/04/30 01:50:38;;;;;;;20.23;11.03;;;4.80;99.90;;;;;;10431343;28;20028;-84
2022/04/30 01:55:39;;;;;;;26.17;12.20;;;4.80;99.90;;;;;;10432085;28;20104;-85
2022/04/30 02:00:40;;;;;;;23.43;11.83;;;4.80;99.90;;;;;;10431260;28;20048;-84
2022/04/30 02:05:41;;;;;;;23.37;10.93;;;4.70;99.90;;;;;;10448294;28;20481;-85
2022/04/30 02:10:42;;;;;;;24.90;12.07;;;4.60;99.90;;;;;;10448280;28;20049;-86
2022/04/30 02:15:45;;;;;;;22.53;10.80;;;4.60;99.90;;;;;;10450057;28;20021;-85
2022/04/30 02:20:49;;;;;;;25.10;12.10;;;4.60;99.90;;;;;;10448224;28;20445;-85
2022/04/30 02:25:51;;;;;;;22.90;10.63;;;4.60;99.90;;;;;;10427495;28;20024;-84
2022/04/30 02:30:54;;;;;;;21.20;10.30;;;4.70;99.90;;;;;;10448574;28;20400;-87
2022/04/30 02:35:58;;;;;;;23.13;11.07;;;4.80;99.90;;;;;;10447814;28;20154;-85
2022/04/30 02:40:59;;;;;;;19.97;10.97;;;4.80;99.90;;;;;;10430104;28;20045;-84
2022/04/30 02:45:59;;;;;;;26.70;13.00;;;4.80;99.90;;;;;;10449128;28;20115;-85
2022/04/30 02:51:00;;;;;;;24.27;13.03;;;4.70;99.90;;;;;;10431175;28;20025;-85
2022/04/30 02:56:01;;;;;;;27.20;12.23;;;4.50;99.90;;;;;;10448726;28;20040;-84
2022/04/30 03:01:01;;;;;;;29.20;13.77;;;4.30;99.90;;;;;;10448485;28;20041;-85
2022/04/30 03:06:02;;;;;;;30.00;15.13;;;4.10;99.90;;;;;;10446515;28;20037;-84
2022/04/30 03:11:03;;;;;;;35.13;18.03;;;3.90;99.90;;;;;;10431277;28;20480;-85
2022/04/30 03:26:28;;;;;;;35.97;17.97;;;3.80;99.90;;;;;;10447749;28;20041;-85
2022/04/30 03:31:32;;;;;;;34.37;16.70;;;3.80;99.90;;;;;;10429288;28;20536;-84
2022/04/30 03:36:33;;;;;;;30.00;14.70;;;3.90;99.90;;;;;;10446552;28;20039;-84
2022/04/30 03:41:33;;;;;;;29.90;13.67;;;3.90;99.90;;;;;;10453217;28;20053;-85
2022/04/30 03:46:34;;;;;;;26.83;13.67;;;3.90;99.90;;;;;;10454606;28;20035;-83
2022/04/30 03:51:35;;;;;;;24.97;12.07;;;4.00;99.90;;;;;;10454637;28;20037;-86
2022/04/30 03:56:35;;;;;;;27.87;12.43;;;4.00;99.90;;;;;;10436918;28;20058;-84
2022/04/30 04:01:37;;;;;;;25.87;12.77;;;4.30;99.90;;;;;;10454276;28;20051;-88
2022/04/30 04:06:38;;;;;;;33.87;14.33;;;4.60;99.90;;;;;;10436259;28;20040;-85
2022/04/30 04:11:39;;;;;;;25.83;13.57;;;4.90;99.90;;;;;;10445110;28;20040;-85
2022/04/30 04:21:59;;;;;;;29.33;15.00;;;5.40;99.90;;;;;;10453141;28;20057;-83
2022/04/30 04:27:01;;;;;;;32.00;15.43;;;5.70;99.90;;;;;;10454115;28;20033;-84
2022/04/30 04:32:02;;;;;;;33.53;16.97;;;5.60;99.90;;;;;;10434565;28;20033;-84
2022/04/30 04:37:02;;;;;;;30.57;16.30;;;5.50;99.90;;;;;;10452759;28;20051;-84
2022/04/30 04:42:03;;;;;;;36.10;18.07;;;5.50;99.90;;;;;;10452953;28;20148;-84
2022/04/30 04:47:04;;;;;;;26.93;14.43;;;5.80;99.90;;;;;;10453034;28;20459;-84
2022/04/30 04:52:05;;;;;;;27.27;15.27;;;6.10;99.90;;;;;;10451887;28;20052;-84
2022/04/30 04:57:06;;;;;;;27.20;14.47;;;6.40;99.90;;;;;;10434777;28;20044;-84
2022/04/30 05:02:07;;;;;;;25.20;13.73;;;6.70;99.90;;;;;;10434458;28;20036;-84
2022/04/30 05:07:08;;;;;;;26.93;13.77;;;7.00;99.90;;;;;;10452853;28;20512;-85
2022/04/30 05:12:09;;;;;;;26.73;14.23;;;7.30;99.90;;;;;;10452481;28;20036;-84
2022/04/30 05:17:09;;;;;;;26.33;14.37;;;7.60;99.90;;;;;;10451835;28;20041;-84
2022/04/30 05:22:11;;;;;;;28.63;16.07;;;7.80;99.90;;;;;;10451490;28;20397;-84
2022/04/30 05:27:11;;;;;;;25.77;13.83;;;8.10;99.90;;;;;;10451211;28;20029;-84
2022/04/30 05:32:12;;;;;;;28.33;14.63;;;8.40;99.90;;;;;;10452006;28;20477;-85
2022/04/30 05:37:13;;;;;;;29.43;16.47;;;8.60;99.90;;;;;;10451034;28;20115;-85
2022/04/30 05:42:13;;;;;;;33.17;18.10;;;8.80;99.90;;;;;;10450357;28;20041;-85
2022/04/30 05:47:14;;;;;;;31.63;17.27;;;8.90;99.90;;;;;;10449946;28;20551;-84
2022/04/30 05:52:14;;;;;;;27.53;16.07;;;9.10;99.90;;;;;;10449452;28;20025;-85
2022/04/30 05:57:15;;;;;;;27.53;14.40;;;9.30;99.90;;;;;;10448619;28;20593;-84
2022/04/30 06:02:16;;;;;;;19.07;9.10;;;9.50;99.40;;;;;;10448147;28;20048;-85
2022/04/30 06:07:17;;;;;;;21.33;10.37;;;9.70;89.70;;;;;;10449060;28;20029;-85
2022/04/30 06:12:17;;;;;;;19.63;10.07;;;9.90;90.30;;;;;;10431925;28;20032;-85
2022/04/30 06:17:18;;;;;;;16.47;9.23;;;10.10;90.10;;;;;;10449539;28;20052;-86
2022/04/30 06:22:19;;;;;;;19.33;10.07;;;10.40;86.60;;;;;;10450217;28;20502;-85
2022/04/30 06:27:20;;;;;;;17.83;10.13;;;10.50;85.60;;;;;;10430651;28;20032;-85
2022/04/30 06:32:21;;;;;;;19.40;9.20;;;10.80;85.00;;;;;;10448881;28;20637;-85
2022/04/30 06:37:21;;;;;;;21.42;10.43;;;10.90;84.30;;;;;;10448875;28;20033;-85
2022/04/30 06:42:22;;;;;;;18.73;9.50;;;11.10;83.30;;;;;;10431291;28;20429;-86
2022/04/30 06:47:22;;;;;;;16.73;9.98;;;11.40;81.90;;;;;;10419881;28;20028;-85
2022/04/30 06:52:23;;;;;;;18.77;9.10;;;11.60;78.40;;;;;;10429938;28;20025;-84
2022/04/30 06:57:24;;;;;;;18.67;9.55;;;11.80;78.90;;;;;;10432402;28;20098;-83
2022/04/30 07:02:30;;;;;;;17.10;8.68;;;11.90;78.00;;;;;;10442124;28;20041;-84
2022/04/30 07:07:31;;;;;;;15.73;7.95;;;12.10;77.90;;;;;;10427541;28;20103;-83
2022/04/30 07:12:32;;;;;;;17.20;8.60;;;12.40;77.40;;;;;;10427954;28;20033;-87
2022/04/30 07:17:32;;;;;;;14.13;6.97;;;12.90;74.40;;;;;;10445105;28;20037;-84
2022/04/30 07:22:33;;;;;;;15.55;7.78;;;13.20;72.60;;;;;;10421280;28;20033;-85
2022/04/30 07:27:34;;;;;;;13.52;6.72;;;13.20;69.30;;;;;;10438833;28;20025;-84
2022/04/30 07:32:34;;;;;;;15.02;7.88;;;13.30;70.00;;;;;;10432765;28;20041;-84
2022/04/30 07:37:35;;;;;;;15.18;7.13;;;13.50;69.60;;;;;;10449589;28;20051;-84
2022/04/30 07:42:35;;;;;;;19.30;8.50;;;13.60;67.80;;;;;;10452406;22;20132;-82
2022/04/30 07:47:36;;;;;;;16.10;7.57;;;13.80;69.70;;;;;;10353861;28;20681;-87
2022/04/30 07:52:37;;;;;;;13.43;6.55;;;14.20;69.40;;;;;;10352227;28;20030;-84
2022/04/30 07:57:37;;;;;;;15.60;6.93;;;14.40;68.40;;;;;;10353240;28;20026;-84
2022/04/30 08:02:38;;;;;;;14.68;6.90;;;14.60;65.70;;;;;;10346556;28;20046;-84
2022/04/30 08:07:39;;;;;;;12.63;6.20;;;14.80;64.10;;;;;;10356363;28;20087;-83
2022/04/30 08:12:39;;;;;;;11.30;5.50;;;15.10;64.30;;;;;;10370763;28;20726;-84
2022/04/30 08:17:40;;;;;;;11.32;6.00;;;15.30;65.60;;;;;;10370501;28;20108;-82
2022/04/30 08:22:41;;;;;;;9.73;5.97;;;15.40;61.90;;;;;;10369608;28;20041;-83
2022/04/30 08:27:42;;;;;;;12.68;6.40;;;15.30;61.80;;;;;;10355116;28;20652;-83
2022/04/30 08:32:43;;;;;;;11.80;5.72;;;15.30;63.10;;;;;;10368697;28;20026;-83
2022/04/30 08:37:44;;;;;;;11.75;5.90;;;15.60;60.90;;;;;;10354710;28;20030;-84
2022/04/30 08:42:46;;;;;;;10.73;5.57;;;16.00;61.00;;;;;;10355108;28;20062;-84
2022/04/30 08:47:48;;;;;;;8.10;4.85;;;16.60;58.80;;;;;;10370345;28;20026;-83
2022/04/30 08:52:51;;;;;;;9.70;5.40;;;16.60;58.40;;;;;;10360267;28;20123;-83
2022/04/30 08:57:52;;;;;;;8.80;5.50;;;16.60;55.10;;;;;;10361588;28;20045;-85
2022/04/30 09:02:59;;;;;;;10.05;5.25;;;16.70;56.30;;;;;;10350224;28;20064;-84
2022/04/30 09:08:01;;;;;;;13.77;5.78;;;17.00;56.00;;;;;;10344850;28;20053;-84
2022/04/30 09:13:10;;;;;;;8.82;5.15;;;17.20;61.20;;;;;;10344295;28;20489;-84
2022/04/30 09:18:12;;;;;;;10.02;5.35;;;17.40;54.40;;;;;;10460397;23;20077;-84
2022/04/30 09:23:27;;;;;;;12.88;6.07;;;17.10;55.10;;;;;;10447431;28;20044;-84
2022/04/30 09:28:33;;;;;;;7.70;4.97;;;17.40;53.60;;;;;;10435804;28;20105;-83
2022/04/30 09:33:35;;;;;;;8.02;5.38;;;17.70;56.50;;;;;;10447030;28;20435;-84
2022/04/30 09:38:38;;;;;;;7.78;5.18;;;17.70;53.00;;;;;;10444959;28;20036;-84
2022/04/30 09:43:39;;;;;;;8.50;4.88;;;17.70;58.50;;;;;;10423233;28;20052;-84
2022/04/30 09:54:00;;;;;;;12.20;5.78;;;18.10;56.70;;;;;;10427308;28;20041;-87
2022/04/30 09:59:04;;;;;;;11.45;5.38;;;17.90;52.70;;;;;;10426970;28;20071;-85
2022/04/30 10:04:08;;;;;;;8.75;4.55;;;17.60;53.10;;;;;;10419901;28;20041;-85
2022/04/30 10:09:11;;;;;;;7.78;4.82;;;17.50;53.80;;;;;;10421979;28;20021;-84
2022/04/30 10:14:31;;;;;;;9.45;5.20;;;17.20;54.00;;;;;;10414514;28;20099;-84
2022/04/30 10:19:31;;;;;;;9.27;4.47;;;17.20;53.10;;;;;;10430184;28;20511;-84
2022/04/30 10:24:40;;;;;;;8.32;4.70;;;17.30;53.70;;;;;;10415110;28;20048;-85
2022/04/30 10:30:00;;;;;;;11.90;4.60;;;17.40;53.70;;;;;;10436593;28;20528;-84
2022/04/30 10:35:02;;;;;;;6.88;4.13;;;17.30;56.20;;;;;;10425318;28;20021;-85
2022/04/30 10:40:08;;;;;;;9.40;4.80;;;17.50;57.00;;;;;;10438222;28;20033;-86
2022/04/30 10:45:16;;;;;;;11.63;4.72;;;17.40;55.50;;;;;;10438900;28;20025;-85
2022/04/30 10:50:17;;;;;;;7.85;4.68;;;17.40;53.70;;;;;;10441409;28;20017;-86
2022/04/30 10:55:22;;;;;;;8.15;4.50;;;17.00;52.00;;;;;;10444918;28;20033;-84
2022/04/30 11:00:24;;;;;;;7.00;4.23;;;16.80;54.90;;;;;;10440783;28;20496;-86
2022/04/30 11:05:25;;;;;;;8.18;4.40;;;16.80;52.00;;;;;;10441699;28;20147;-84
2022/04/30 11:10:26;;;;;;;5.95;4.40;;;17.00;55.00;;;;;;10429260;28;20105;-86
2022/04/30 11:15:26;;;;;;;8.85;4.13;;;16.70;53.10;;;;;;10431646;28;20061;-86
2022/04/30 11:20:27;;;;;;;6.78;4.40;;;16.90;53.50;;;;;;10431109;28;20060;-86
2022/04/30 11:25:39;;;;;;;8.18;3.80;;;17.00;54.00;;;;;;10436494;28;20112;-82
2022/04/30 11:30:42;;;;;;;8.57;5.10;;;16.80;54.20;;;;;;10431422;28;20280;-81
2022/04/30 11:35:54;;;;;;;7.65;4.40;;;16.80;52.40;;;;;;10425100;28;20112;-82
2022/04/30 11:41:09;;;;;;;9.50;5.63;;;16.90;52.80;;;;;;10416088;28;20087;-81
2022/04/30 11:46:11;;;;;;;7.30;4.47;;;17.00;51.60;;;;;;10426572;28;20427;-84
2022/04/30 11:51:12;;;;;;;10.18;4.40;;;17.00;54.80;;;;;;10446338;28;20054;-85
2022/04/30 11:56:13;;;;;;;10.95;4.75;;;16.90;51.90;;;;;;10441179;28;20078;-82
2022/04/30 12:01:29;;;;;;;9.45;4.55;;;16.80;52.50;;;;;;10448343;28;20043;-82
2022/04/30 12:06:31;;;;;;;7.78;5.53;;;16.80;53.90;;;;;;10431697;28;20025;-85
2022/04/30 12:11:41;;;;;;;10.50;6.47;;;16.90;52.90;;;;;;10441725;28;20029;-83
2022/04/30 12:16:43;;;;;;;8.48;4.50;;;16.90;52.60;;;;;;10442713;28;20168;-85
2022/04/30 12:27:04;;;;;;;7.50;4.03;;;17.00;54.70;;;;;;10430293;28;20033;-83
2022/04/30 12:32:07;;;;;;;10.00;4.80;;;16.90;53.30;;;;;;10418663;28;20021;-83
2022/04/30 12:37:08;;;;;;;7.70;4.97;;;16.90;52.90;;;;;;10419120;28;20025;-84
2022/04/30 12:42:11;;;;;;;7.80;4.18;;;16.90;53.30;;;;;;10413703;28;20075;-84
2022/04/30 12:47:11;;;;;;;6.45;4.38;;;16.90;53.40;;;;;;10435979;28;20033;-88
2022/04/30 12:52:12;;;;;;;7.07;4.50;;;17.00;52.70;;;;;;10410755;28;20020;-83
2022/04/30 12:57:13;;;;;;;7.20;4.63;;;17.10;55.20;;;;;;10416869;28;20022;-85
2022/04/30 13:02:14;;;;;;;7.15;4.20;;;17.10;52.80;;;;;;10407366;28;20033;-87
2022/04/30 13:07:15;;;;;;;8.70;5.20;;;17.00;52.70;;;;;;10422592;28;20091;-87
2022/04/30 13:17:35;;;;;;;5.57;3.70;;;17.20;51.90;;;;;;10440160;28;20048;-85
2022/04/30 13:22:36;;;;;;;8.00;3.95;;;17.30;53.90;;;;;;10412692;28;20045;-85
2022/04/30 13:27:36;;;;;;;7.13;4.07;;;17.10;50.40;;;;;;10430090;28;20025;-84
2022/04/30 13:32:37;;;;;;;5.72;3.53;;;17.20;52.90;;;;;;10426123;28;20037;-85
2022/04/30 13:37:40;;;;;;;3.65;3.00;;;17.30;51.10;;;;;;10436217;28;20036;-86
2022/04/30 13:42:41;;;;;;;6.40;3.65;;;17.70;51.10;;;;;;10418265;28;20514;-86
2022/04/30 13:47:42;;;;;;;8.15;4.53;;;17.90;51.00;;;;;;10429397;28;20029;-83
2022/04/30 13:52:43;;;;;;;21.15;11.50;;;18.10;52.50;;;;;;10433632;28;20025;-84
2022/04/30 13:57:44;;;;;;;161.05;107.20;;;18.30;51.40;;;;;;10427033;28;20377;-84
2022/04/30 14:02:45;;;;;;;11.45;6.68;;;18.10;50.30;;;;;;10436582;28;20488;-84
2022/04/30 14:07:45;;;;;;;8.95;4.40;;;18.10;52.20;;;;;;10418133;28;20017;-84
2022/04/30 14:12:46;;;;;;;5.88;3.75;;;17.80;49.30;;;;;;10427312;28;20025;-83
2022/04/30 14:23:06;;;;;;;6.32;3.83;;;17.50;51.40;;;;;;10420806;28;20045;-84
2022/04/30 14:28:07;;;;;;;12.35;4.88;;;17.50;51.20;;;;;;10420108;28;20519;-84
2022/04/30 14:33:09;;;;;;;9.30;4.93;;;17.50;50.10;;;;;;10434591;28;20541;-84
2022/04/30 14:38:11;;;;;;;11.30;6.30;;;17.40;52.00;;;;;;10414880;28;20115;-84
2022/04/30 14:43:15;;;;;;;10.55;6.65;;;17.70;53.50;;;;;;10417032;28;20041;-85
2022/04/30 14:48:16;;;;;;;16.92;11.77;;;17.70;51.10;;;;;;10417226;28;20326;-84
2022/04/30 14:53:18;;;;;;;9.63;6.43;;;17.80;51.90;;;;;;10423111;28;20033;-84
2022/04/30 14:58:18;;;;;;;11.65;8.13;;;17.60;49.80;;;;;;10418223;28;20020;-84
2022/04/30 15:03:19;;;;;;;8.82;4.85;;;17.60;53.10;;;;;;10414985;28;20038;-84
2022/04/30 15:08:20;;;;;;;12.45;7.78;;;17.60;51.90;;;;;;10430418;28;20021;-85
2022/04/30 15:13:21;;;;;;;31.92;22.23;;;17.40;50.50;;;;;;10436527;28;20029;-84
2022/04/30 15:18:21;;;;;;;11.38;7.45;;;17.20;50.80;;;;;;10433847;28;20090;-85
2022/04/30 15:23:23;;;;;;;8.60;4.78;;;17.20;51.30;;;;;;10432991;28;20120;-85
2022/04/30 15:28:24;;;;;;;8.30;4.30;;;17.20;50.60;;;;;;10441863;28;20029;-86
2022/04/30 15:33:25;;;;;;;8.77;4.38;;;17.10;51.10;;;;;;10437890;28;20032;-82
2022/04/30 15:38:26;;;;;;;5.03;3.67;;;17.00;50.90;;;;;;10434722;28;20040;-83
2022/04/30 15:43:26;;;;;;;10.48;5.68;;;16.90;51.20;;;;;;10435790;28;20053;-85
2022/04/30 15:53:54;;;;;;;7.20;4.20;;;16.70;49.80;;;;;;10444645;28;20560;-83
2022/04/30 15:58:56;;;;;;;7.43;4.45;;;16.60;51.50;;;;;;10440781;28;20089;-83
2022/04/30 16:03:57;;;;;;;6.35;3.90;;;16.60;50.30;;;;;;10443828;28;20118;-84
2022/04/30 16:08:58;;;;;;;6.78;3.67;;;16.60;51.10;;;;;;10438805;28;20387;-83
2022/04/30 16:13:58;;;;;;;8.18;3.72;;;16.50;51.70;;;;;;10432998;28;20049;-82
2022/04/30 16:19:00;;;;;;;9.30;4.40;;;16.40;51.30;;;;;;10438103;28;20025;-82
2022/04/30 16:24:01;;;;;;;9.18;5.78;;;16.30;51.40;;;;;;10438500;28;20167;-83
2022/04/30 16:29:02;;;;;;;9.05;5.07;;;16.30;53.10;;;;;;10436454;28;20041;-84
2022/04/30 16:34:03;;;;;;;12.48;7.15;;;16.20;51.30;;;;;;10435841;28;20452;-83
2022/04/30 16:39:04;;;;;;;7.75;4.30;;;16.10;50.80;;;;;;10433904;28;20405;-83
2022/04/30 16:44:05;;;;;;;10.13;6.07;;;15.90;51.90;;;;;;10440105;28;20048;-82
2022/04/30 16:49:05;;;;;;;9.88;4.53;;;15.70;52.50;;;;;;10442801;28;20029;-83
2022/04/30 16:54:06;;;;;;;10.82;5.65;;;15.50;53.70;;;;;;10439179;28;20382;-83
2022/04/30 16:59:07;;;;;;;13.45;6.30;;;15.30;54.70;;;;;;10432979;28;20040;-83
2022/04/30 17:04:08;;;;;;;10.23;5.20;;;15.00;55.50;;;;;;10421315;28;20043;-84
2022/04/30 17:09:09;;;;;;;11.23;6.10;;;14.70;57.50;;;;;;10432842;28;20028;-83
2022/04/30 17:14:10;;;;;;;13.95;7.15;;;14.40;57.00;;;;;;10431546;28;20049;-83
2022/04/30 17:19:11;;;;;;;10.93;5.78;;;14.20;56.90;;;;;;10435404;28;20028;-83
2022/04/30 17:24:11;;;;;;;12.55;6.28;;;14.00;59.80;;;;;;10434125;28;20043;-83
2022/04/30 17:29:12;;;;;;;13.10;5.00;;;13.60;60.70;;;;;;10423105;28;20032;-83
2022/04/30 17:39:32;;;;;;;14.60;6.97;;;12.90;64.30;;;;;;10423645;28;20056;-84
2022/04/30 17:44:34;;;;;;;14.40;6.25;;;12.40;65.60;;;;;;10426047;28;20043;-83
2022/04/30 17:49:35;;;;;;;9.15;4.60;;;12.10;66.80;;;;;;10438698;28;20029;-83
2022/04/30 17:54:35;;;;;;;18.48;7.40;;;11.80;67.30;;;;;;10431200;28;20083;-82
2022/04/30 17:59:38;;;;;;;27.83;10.45;;;11.40;67.50;;;;;;10424786;28;20372;-83
2022/04/30 18:04:38;;;;;;;26.90;11.30;;;11.20;67.40;;;;;;10417452;28;20044;-84
2022/04/30 18:09:39;;;;;;;29.60;13.17;;;11.00;68.20;;;;;;10434605;28;20473;-84
2022/04/30 18:14:42;;;;;;;29.23;13.93;;;10.90;68.40;;;;;;10433340;28;20135;-85
2022/04/30 18:19:43;;;;;;;26.70;13.17;;;10.70;69.70;;;;;;10433873;28;20040;-85
2022/04/30 18:24:44;;;;;;;30.60;13.47;;;10.60;68.50;;;;;;10440939;28;20082;-84
2022/04/30 18:29:45;;;;;;;27.27;12.57;;;10.50;69.80;;;;;;10429984;28;21176;-83
2022/04/30 18:34:46;;;;;;;30.58;16.02;;;10.40;70.10;;;;;;10436076;28;20045;-84
2022/04/30 18:39:50;;;;;;;28.33;13.93;;;10.40;70.80;;;;;;10419920;28;20037;-84
2022/04/30 18:44:51;;;;;;;33.17;16.90;;;10.40;71.70;;;;;;10421300;28;20496;-85
2022/04/30 18:49:51;;;;;;;31.57;16.93;;;10.40;72.00;;;;;;10435524;28;20120;-86
2022/04/30 19:05:31;;;;;;;68.77;29.43;;;10.20;72.70;;;;;;10420686;28;20033;-82
2022/04/30 19:10:32;;;;;;;41.67;21.67;;;10.10;73.20;;;;;;10425204;28;20045;-85
2022/04/30 19:15:34;;;;;;;40.93;20.10;;;10.00;73.40;;;;;;10433100;28;20049;-85
2022/04/30 19:20:35;;;;;;;31.60;16.13;;;9.90;73.80;;;;;;10443458;28;20024;-83
2022/04/30 19:25:35;;;;;;;27.93;15.47;;;9.80;73.90;;;;;;10437260;28;20029;-82
2022/04/30 19:30:36;;;;;;;33.20;17.13;;;9.80;74.20;;;;;;10437543;28;20041;-84
2022/04/30 19:35:39;;;;;;;48.30;24.00;;;9.80;74.20;;;;;;10443163;28;20120;-84
2022/04/30 19:40:40;;;;;;;43.37;23.70;;;9.80;73.90;;;;;;10441104;28;20021;-85
2022/04/30 19:45:42;;;;;;;46.73;23.73;;;9.70;74.10;;;;;;10432832;28;20025;-83
2022/04/30 19:50:43;;;;;;;41.57;22.30;;;9.70;73.70;;;;;;10444160;28;20076;-84
2022/04/30 19:55:43;;;;;;;40.17;20.27;;;9.70;73.60;;;;;;10427534;28;20063;-85
2022/04/30 20:00:44;;;;;;;34.53;19.40;;;9.70;73.50;;;;;;10429927;28;20029;-84
2022/04/30 20:05:44;;;;;;;42.67;21.10;;;9.70;73.90;;;;;;10423811;28;20124;-84
2022/04/30 20:21:25;;;;;;;36.27;20.57;;;9.60;74.30;;;;;;10443404;28;20119;-83
2022/04/30 20:26:25;;;;;;;38.70;20.77;;;9.80;73.60;;;;;;10440535;28;20033;-83
2022/04/30 20:36:45;;;;;;;38.53;21.90;;;9.80;74.40;;;;;;10449510;28;20045;-84
2022/04/30 20:41:46;;;;;;;40.60;21.37;;;9.70;74.70;;;;;;10427356;28;20435;-87
2022/04/30 20:46:47;;;;;;;44.00;23.20;;;9.60;75.30;;;;;;10445769;28;20067;-86
2022/04/30 20:51:48;;;;;;;39.20;21.17;;;9.40;77.30;;;;;;10451342;28;20048;-84
2022/04/30 20:56:49;;;;;;;138.83;63.23;;;9.20;78.10;;;;;;10419830;28;20028;-84
2022/04/30 21:01:50;;;;;;;150.43;74.20;;;8.90;79.40;;;;;;10435329;28;20025;-85
2022/04/30 21:06:50;;;;;;;73.73;36.50;;;8.80;79.20;;;;;;10433085;28;20028;-85
2022/04/30 21:11:51;;;;;;;50.83;26.53;;;8.60;79.20;;;;;;10435795;28;20082;-86
2022/04/30 21:16:51;;;;;;;43.87;24.67;;;8.40;81.00;;;;;;10439181;28;20140;-84
2022/04/30 21:21:52;;;;;;;40.47;22.63;;;8.30;80.80;;;;;;10430001;28;20037;-87
2022/04/30 21:26:53;;;;;;;45.80;23.73;;;8.20;81.10;;;;;;10437701;28;20044;-84
2022/04/30 21:31:54;;;;;;;45.87;24.50;;;8.30;81.00;;;;;;10437602;28;20076;-84
2022/04/30 21:36:54;;;;;;;47.93;25.53;;;8.40;80.90;;;;;;10439230;28;20140;-84
2022/04/30 21:41:57;;;;;;;44.73;25.33;;;8.50;80.30;;;;;;10444269;28;20072;-86
2022/04/30 21:46:57;;;;;;;50.33;26.37;;;8.60;81.30;;;;;;10439831;28;20033;-85
2022/04/30 21:51:58;;;;;;;49.87;25.30;;;8.40;81.80;;;;;;10419355;28;20439;-85
2022/04/30 22:02:19;;;;;;;64.00;32.83;;;8.80;79.90;;;;;;10433573;28;20132;-85
2022/04/30 22:07:20;;;;;;;50.40;26.73;;;8.70;81.90;;;;;;10421769;28;20033;-87
2022/04/30 22:12:20;;;;;;;58.37;31.57;;;8.50;82.50;;;;;;10409133;28;20037;-87
2022/04/30 22:17:25;;;;;;;58.60;29.87;;;8.20;83.30;;;;;;10422117;28;20128;-85
2022/04/30 22:22:26;;;;;;;59.60;33.07;;;8.00;84.00;;;;;;10431987;28;20086;-83
2022/04/30 22:27:27;;;;;;;67.33;33.50;;;8.10;84.10;;;;;;10447852;28;20578;-83
2022/04/30 22:32:27;;;;;;;54.57;29.57;;;8.30;83.30;;;;;;10447953;28;20040;-83
2022/04/30 22:37:29;;;;;;;52.20;26.53;;;8.30;82.80;;;;;;10448726;28;20025;-84
2022/04/30 22:42:49;;;;;;;48.40;24.07;;;8.40;82.40;;;;;;10415251;28;20026;-85
2022/04/30 22:47:50;;;;;;;43.07;22.87;;;8.50;82.40;;;;;;10431884;28;20528;-83
2022/04/30 22:52:50;;;;;;;43.33;22.63;;;8.40;82.70;;;;;;10454752;28;20098;-84
2022/04/30 22:57:51;;;;;;;43.83;24.93;;;8.40;82.40;;;;;;10462400;28;20393;-83
2022/04/30 23:02:52;;;;;;;44.93;24.93;;;8.50;82.60;;;;;;10447725;28;20107;-84
2022/04/30 23:07:52;;;;;;;42.50;24.17;;;8.40;82.90;;;;;;10455368;28;20055;-85
2022/04/30 23:12:54;;;;;;;44.53;24.67;;;8.20;83.60;;;;;;10441554;28;20473;-85
2022/04/30 23:17:56;;;;;;;42.67;24.33;;;8.10;84.50;;;;;;10456627;28;20045;-87
2022/04/30 23:22:57;;;;;;;46.63;24.37;;;8.10;85.30;;;;;;10460003;28;20051;-82
2022/04/30 23:27:57;;;;;;;44.67;24.13;;;8.00;84.90;;;;;;10448415;28;20032;-83
2022/04/30 23:32:58;;;;;;;45.80;23.57;;;8.00;84.90;;;;;;10425652;28;20041;-83
2022/04/30 23:37:59;;;;;;;47.27;27.03;;;7.90;85.20;;;;;;10418161;28;20029;-84
2022/04/30 23:42:59;;;;;;;47.00;24.67;;;7.80;87.60;;;;;;10449998;28;20029;-83
2022/04/30 23:48:00;;;;;;;41.80;23.93;;;7.60;88.70;;;;;;10458313;28;20020;-83
2022/04/30 23:53:01;;;;;;;44.70;24.90;;;7.40;90.20;;;;;;10454437;28;20136;-82
2022/04/30 23:58:02;;;;;;;43.07;23.83;;;7.30;91.00;;;;;;10450959;28;20107;-83
